sensor_id;sensor_type;location;lat;lon;timestamp;pressure;altitude;pressure_sealevel;temperature;humidity
42001;BME280;27689;48.390;10.856;2024-02-04T00:02:13;97170.38;;;6.67;100.00
42001;BME280;27689;48.390;10.856;2024-02-04T00:04:58;97178.63;;;6.74;100.00
42001;BME280;27689;48.390;10.856;2024-02-04T00:07:42;97155.97;;;6.62;100.00
42001;BME280;27689;48.390;10.856;2024-02-04T00:10:26;97150.94;;;6.59;100.00
42001;BME280;27689;48.390;10.856;2024-02-04T00:13:10;97151.44;;;6.51;100.00
42001;BME280;27689;48.390;10.856;2024-02-04T00:15:54;97141.03;;;6.51;100.00
42001;BME280;27689;48.390;10.856;2024-02-04T00:18:38;97150.94;;;6.59;100.00
42001;BME280;27689;48.390;10.856;2024-02-04T00:21:22;97146.16;;;6.53;100.00
42001;BME280;27689;48.390;10.856;2024-02-04T00:24:06;97149.13;;;6.47;100.00
42001;BME280;27689;48.390;10.856;2024-02-04T00:26:50;97144.94;;;6.44;100.00
42001;BME280;27689;48.390;10.856;2024-02-04T00:29:34;97153.13;;;6.52;100.00
42001;BME280;27689;48.390;10.856;2024-02-04T00:32:18;97148.09;;;6.49;100.00
42001;BME280;27689;48.390;10.856;2024-02-04T00:35:01;97140.75;;;6.42;100.00
42001;BME280;27689;48.390;10.856;2024-02-04T00:37:46;97122.53;;;6.42;100.00
42001;BME280;27689;48.390;10.856;2024-02-04T00:40:31;97123.19;;;6.45;100.00
42001;BME280;27689;48.390;10.856;2024-02-04T00:43:15;97124.75;;;6.48;100.00
42001;BME280;27689;48.390;10.856;2024-02-04T00:45:59;97130.31;;;6.56;100.00
42001;BME280;27689;48.390;10.856;2024-02-04T00:48:45;97131.06;;;6.58;100.00
42001;BME280;27689;48.390;10.856;2024-02-04T00:51:29;97126.25;;;6.52;100.00
42001;BME280;27689;48.390;10.856;2024-02-04T00:54:13;97131.66;;;6.49;100.00
42001;BME280;27689;48.390;10.856;2024-02-04T00:56:56;97131.00;;;6.45;100.00
42001;BME280;27689;48.390;10.856;2024-02-04T00:59:41;97122.44;;;6.43;100.00
42001;BME280;27689;48.390;10.856;2024-02-04T01:02:25;97121.03;;;6.52;100.00
42001;BME280;27689;48.390;10.856;2024-02-04T01:05:09;97118.53;;;6.50;100.00
42001;BME280;27689;48.390;10.856;2024-02-04T01:07:53;97117.06;;;6.46;100.00
42001;BME280;27689;48.390;10.856;2024-02-04T01:10:37;97102.81;;;6.52;100.00
42001;BME280;27689;48.390;10.856;2024-02-04T01:13:21;97112.41;;;6.51;100.00
42001;BME280;27689;48.390;10.856;2024-02-04T01:16:05;97104.97;;;6.45;100.00
42001;BME280;27689;48.390;10.856;2024-02-04T01:18:48;97115.13;;;6.35;100.00
42001;BME280;27689;48.390;10.856;2024-02-04T01:21:32;97112.22;;;6.40;100.00
42001;BME280;27689;48.390;10.856;2024-02-04T01:24:16;97134.44;;;6.46;100.00
42001;BME280;27689;48.390;10.856;2024-02-04T01:27:00;97131.03;;;6.31;100.00
42001;BME280;27689;48.390;10.856;2024-02-04T01:29:44;97122.19;;;6.33;100.00
42001;BME280;27689;48.390;10.856;2024-02-04T01:32:28;97122.84;;;6.37;100.00
42001;BME280;27689;48.390;10.856;2024-02-04T01:35:12;97129.81;;;6.36;100.00
42001;BME280;27689;48.390;10.856;2024-02-04T01:37:56;97135.72;;;6.38;100.00
42001;BME280;27689;48.390;10.856;2024-02-04T01:40:40;97136.94;;;6.47;100.00
42001;BME280;27689;48.390;10.856;2024-02-04T01:43:24;97130.91;;;6.47;100.00
42001;BME280;27689;48.390;10.856;2024-02-04T01:46:08;97130.16;;;6.45;100.00
42001;BME280;27689;48.390;10.856;2024-02-04T01:48:53;97129.41;;;6.43;100.00
42001;BME280;27689;48.390;10.856;2024-02-04T01:51:37;97127.94;;;6.38;100.00
42001;BME280;27689;48.390;10.856;2024-02-04T01:54:21;97129.50;;;6.41;100.00
42001;BME280;27689;48.390;10.856;2024-02-04T01:57:05;97120.59;;;6.45;100.00
42001;BME280;27689;48.390;10.856;2024-02-04T01:59:49;97113.47;;;6.34;100.00
42001;BME280;27689;48.390;10.856;2024-02-04T02:02:38;97108.16;;;6.36;100.00
42001;BME280;27689;48.390;10.856;2024-02-04T02:05:22;97098.50;;;6.38;100.00
42001;BME280;27689;48.390;10.856;2024-02-04T02:08:06;97076.84;;;6.38;100.00
42001;BME280;27689;48.390;10.856;2024-02-04T02:10:50;97082.47;;;6.44;100.00
42001;BME280;27689;48.390;10.856;2024-02-04T02:13:35;97068.06;;;6.38;100.00
42001;BME280;27689;48.390;10.856;2024-02-04T02:16:20;97071.50;;;6.39;100.00
42001;BME280;27689;48.390;10.856;2024-02-04T02:22:15;97092.88;;;6.44;100.00
42001;BME280;27689;48.390;10.856;2024-02-04T02:25:05;97083.41;;;6.43;100.00
42001;BME280;27689;48.390;10.856;2024-02-04T02:27:51;97080.41;;;6.49;100.00
42001;BME280;27689;48.390;10.856;2024-02-04T02:30:35;97074.22;;;6.38;100.00
42001;BME280;27689;48.390;10.856;2024-02-04T02:33:19;97077.34;;;6.43;100.00
42001;BME280;27689;48.390;10.856;2024-02-04T02:36:04;97083.22;;;6.46;100.00
42001;BME280;27689;48.390;10.856;2024-02-04T02:38:56;97096.59;;;6.40;100.00
42001;BME280;27689;48.390;10.856;2024-02-04T02:41:43;97095.75;;;6.40;100.00
42001;BME280;27689;48.390;10.856;2024-02-04T02:44:28;97101.72;;;6.42;100.00
42001;BME280;27689;48.390;10.856;2024-02-04T02:47:12;97099.84;;;6.44;100.00
42001;BME280;27689;48.390;10.856;2024-02-04T02:49:57;97116.88;;;6.49;100.00
42001;BME280;27689;48.390;10.856;2024-02-04T02:52:41;97115.13;;;6.35;100.00
42001;BME280;27689;48.390;10.856;2024-02-04T02:55:25;97117.25;;;6.43;100.00
42001;BME280;27689;48.390;10.856;2024-02-04T02:58:09;97109.00;;;6.36;100.00
42001;BME280;27689;48.390;10.856;2024-02-04T03:00:53;97112.16;;;6.27;100.00
42001;BME280;27689;48.390;10.856;2024-02-04T03:03:37;97110.94;;;6.33;100.00
42001;BME280;27689;48.390;10.856;2024-02-04T03:06:21;97121.91;;;6.24;100.00
42001;BME280;27689;48.390;10.856;2024-02-04T03:09:05;97116.63;;;6.25;100.00
42001;BME280;27689;48.390;10.856;2024-02-04T03:11:49;97107.44;;;6.20;100.00
42001;BME280;27689;48.390;10.856;2024-02-04T03:14:33;97108.53;;;6.30;100.00
42001;BME280;27689;48.390;10.856;2024-02-04T03:17:17;97127.34;;;6.21;100.00
42001;BME280;27689;48.390;10.856;2024-02-04T03:20:04;97112.00;;;6.16;100.00
42001;BME280;27689;48.390;10.856;2024-02-04T03:22:48;97110.22;;;6.17;100.00
42001;BME280;27689;48.390;10.856;2024-02-04T03:25:32;97113.94;;;6.13;100.00
42001;BME280;27689;48.390;10.856;2024-02-04T03:28:16;97095.66;;;6.14;100.00
42001;BME280;27689;48.390;10.856;2024-02-04T03:31:00;97084.59;;;6.11;100.00
42001;BME280;27689;48.390;10.856;2024-02-04T03:33:43;97094.63;;;6.17;100.00
42001;BME280;27689;48.390;10.856;2024-02-04T03:36:27;97091.09;;;6.18;100.00
42001;BME280;27689;48.390;10.856;2024-02-04T03:39:11;97095.56;;;6.16;100.00
42001;BME280;27689;48.390;10.856;2024-02-04T03:41:55;97081.75;;;6.28;100.00
42001;BME280;27689;48.390;10.856;2024-02-04T03:44:39;97087.19;;;6.11;100.00
42001;BME280;27689;48.390;10.856;2024-02-04T03:47:23;97081.25;;;6.09;100.00
42001;BME280;27689;48.390;10.856;2024-02-04T03:50:07;97079.59;;;6.08;100.00
42001;BME280;27689;48.390;10.856;2024-02-04T03:52:51;97092.38;;;6.11;100.00
42001;BME280;27689;48.390;10.856;2024-02-04T03:55:35;97097.78;;;6.22;100.00
42001;BME280;27689;48.390;10.856;2024-02-04T03:58:19;97099.44;;;6.23;100.00
42001;BME280;27689;48.390;10.856;2024-02-04T04:01:03;97090.06;;;6.20;100.00
42001;BME280;27689;48.390;10.856;2024-02-04T04:03:47;97096.03;;;6.22;100.00
42001;BME280;27689;48.390;10.856;2024-02-04T04:06:31;97094.44;;;6.20;100.00
42001;BME280;27689;48.390;10.856;2024-02-04T04:09:15;97107.97;;;6.25;100.00
42001;BME280;27689;48.390;10.856;2024-02-04T04:11:59;97106.69;;;6.32;100.00
42001;BME280;27689;48.390;10.856;2024-02-04T04:14:43;97106.69;;;6.18;100.00
42001;BME280;27689;48.390;10.856;2024-02-04T04:17:27;97102.25;;;6.20;100.00
42001;BME280;27689;48.390;10.856;2024-02-04T04:20:10;97110.97;;;6.19;100.00
42001;BME280;27689;48.390;10.856;2024-02-04T04:22:55;97104.09;;;6.18;100.00
42001;BME280;27689;48.390;10.856;2024-02-04T04:25:38;97102.78;;;6.11;100.00
42001;BME280;27689;48.390;10.856;2024-02-04T04:28:22;97113.78;;;6.01;100.00
42001;BME280;27689;48.390;10.856;2024-02-04T04:31:06;97106.81;;;6.02;100.00
42001;BME280;27689;48.390;10.856;2024-02-04T04:33:50;97090.28;;;6.03;100.00
42001;BME280;27689;48.390;10.856;2024-02-04T04:36:35;97093.72;;;6.04;100.00
42001;BME280;27689;48.390;10.856;2024-02-04T04:39:19;97096.97;;;6.07;100.00
42001;BME280;27689;48.390;10.856;2024-02-04T04:42:04;97089.16;;;6.07;100.00
42001;BME280;27689;48.390;10.856;2024-02-04T04:44:47;97089.78;;;6.11;100.00
42001;BME280;27689;48.390;10.856;2024-02-04T04:47:31;97071.41;;;5.99;100.00
42001;BME280;27689;48.390;10.856;2024-02-04T04:50:15;97083.31;;;6.04;100.00
42001;BME280;27689;48.390;10.856;2024-02-04T04:52:59;97089.53;;;6.01;100.00
42001;BME280;27689;48.390;10.856;2024-02-04T04:55:43;97101.53;;;6.04;100.00
42001;BME280;27689;48.390;10.856;2024-02-04T04:58:27;97103.56;;;5.98;100.00
42001;BME280;27689;48.390;10.856;2024-02-04T05:01:11;97112.56;;;6.21;100.00
42001;BME280;27689;48.390;10.856;2024-02-04T05:03:55;97110.06;;;6.20;100.00
42001;BME280;27689;48.390;10.856;2024-02-04T05:06:39;97108.56;;;6.16;100.00
42001;BME280;27689;48.390;10.856;2024-02-04T05:09:23;97106.88;;;6.15;100.00
42001;BME280;27689;48.390;10.856;2024-02-04T05:12:08;97104.78;;;6.07;100.00
42001;BME280;27689;48.390;10.856;2024-02-04T05:14:52;97101.69;;;6.00;100.00
42001;BME280;27689;48.390;10.856;2024-02-04T05:17:36;97111.44;;;5.97;100.00
42001;BME280;27689;48.390;10.856;2024-02-04T05:20:20;97103.03;;;5.93;100.00
42001;BME280;27689;48.390;10.856;2024-02-04T05:23:04;97096.31;;;5.89;100.00
42001;BME280;27689;48.390;10.856;2024-02-04T05:25:48;97084.91;;;5.92;100.00
42001;BME280;27689;48.390;10.856;2024-02-04T05:28:32;97089.06;;;5.94;100.00
42001;BME280;27689;48.390;10.856;2024-02-04T05:31:16;97096.50;;;6.00;100.00
42001;BME280;27689;48.390;10.856;2024-02-04T05:34:04;97087.75;;;5.87;100.00
42001;BME280;27689;48.390;10.856;2024-02-04T05:36:48;97091.47;;;5.83;100.00
42001;BME280;27689;48.390;10.856;2024-02-04T05:39:32;97084.06;;;5.77;100.00
42001;BME280;27689;48.390;10.856;2024-02-04T05:42:16;97089.59;;;5.85;100.00
42001;BME280;27689;48.390;10.856;2024-02-04T05:45:00;97088.44;;;5.91;100.00
42001;BME280;27689;48.390;10.856;2024-02-04T05:47:44;97097.22;;;5.74;100.00
42001;BME280;27689;48.390;10.856;2024-02-04T05:50:29;97102.78;;;5.68;100.00
42001;BME280;27689;48.390;10.856;2024-02-04T05:53:13;97084.41;;;5.71;100.00
42001;BME280;27689;48.390;10.856;2024-02-04T05:55:56;97083.22;;;5.77;100.00
42001;BME280;27689;48.390;10.856;2024-02-04T05:58:40;97092.03;;;5.74;100.00
42001;BME280;27689;48.390;10.856;2024-02-04T06:01:24;97086.16;;;5.85;100.00
42001;BME280;27689;48.390;10.856;2024-02-04T06:04:08;97091.28;;;5.86;100.00
42001;BME280;27689;48.390;10.856;2024-02-04T06:06:52;97084.06;;;5.77;100.00
42001;BME280;27689;48.390;10.856;2024-02-04T06:09:36;97087.19;;;5.82;100.00
42001;BME280;27689;48.390;10.856;2024-02-04T06:12:20;97083.66;;;5.83;100.00
42001;BME280;27689;48.390;10.856;2024-02-04T06:15:04;97098.25;;;5.72;100.00
42001;BME280;27689;48.390;10.856;2024-02-04T06:17:48;97109.22;;;5.77;100.00
42001;BME280;27689;48.390;10.856;2024-02-04T06:20:32;97112.09;;;5.72;100.00
42001;BME280;27689;48.390;10.856;2024-02-04T06:23:16;97112.44;;;5.80;100.00
42001;BME280;27689;48.390;10.856;2024-02-04T06:26:02;97126.84;;;5.86;100.00
42001;BME280;27689;48.390;10.856;2024-02-04T06:28:46;97131.47;;;5.81;100.00
42001;BME280;27689;48.390;10.856;2024-02-04T06:31:32;97132.78;;;5.74;100.00
42001;BME280;27689;48.390;10.856;2024-02-04T06:34:15;97128.78;;;5.82;100.00
42001;BME280;27689;48.390;10.856;2024-02-04T06:36:59;97135.50;;;5.86;100.00
42001;BME280;27689;48.390;10.856;2024-02-04T06:39:43;97136.78;;;5.79;100.00
42001;BME280;27689;48.390;10.856;2024-02-04T06:42:27;97133.72;;;5.87;100.00
42001;BME280;27689;48.390;10.856;2024-02-04T06:45:11;97134.47;;;5.75;100.00
42001;BME280;27689;48.390;10.856;2024-02-04T06:47:55;97121.81;;;5.68;100.00
42001;BME280;27689;48.390;10.856;2024-02-04T06:50:39;97128.88;;;5.66;100.00
42001;BME280;27689;48.390;10.856;2024-02-04T06:53:23;97109.31;;;5.61;100.00
42001;BME280;27689;48.390;10.856;2024-02-04T06:56:07;97115.25;;;5.63;100.00
42001;BME280;27689;48.390;10.856;2024-02-04T06:58:51;97114.59;;;5.59;100.00
42001;BME280;27689;48.390;10.856;2024-02-04T07:01:35;97118.56;;;5.65;100.00
42001;BME280;27689;48.390;10.856;2024-02-04T07:04:19;97111.69;;;5.64;100.00
42001;BME280;27689;48.390;10.856;2024-02-04T07:07:05;97118.13;;;5.58;100.00
42001;BME280;27689;48.390;10.856;2024-02-04T07:09:49;97119.31;;;5.67;100.00
42001;BME280;27689;48.390;10.856;2024-02-04T07:12:33;97131.78;;;5.76;100.00
42001;BME280;27689;48.390;10.856;2024-02-04T07:15:17;97118.78;;;5.76;100.00
42001;BME280;27689;48.390;10.856;2024-02-04T07:18:01;97115.88;;;5.66;100.00
42001;BME280;27689;48.390;10.856;2024-02-04T07:20:44;97126.09;;;5.70;100.00
42001;BME280;27689;48.390;10.856;2024-02-04T07:23:28;97132.78;;;5.74;100.00
42001;BME280;27689;48.390;10.856;2024-02-04T07:26:12;97128.78;;;5.68;100.00
42001;BME280;27689;48.390;10.856;2024-02-04T07:28:56;97132.63;;;5.77;100.00
42001;BME280;27689;48.390;10.856;2024-02-04T07:31:41;97124.72;;;5.78;100.00
42001;BME280;27689;48.390;10.856;2024-02-04T07:34:25;97114.59;;;5.74;100.00
42001;BME280;27689;48.390;10.856;2024-02-04T07:37:09;97123.03;;;5.63;100.00
42001;BME280;27689;48.390;10.856;2024-02-04T07:39:53;97116.53;;;5.56;100.00
42001;BME280;27689;48.390;10.856;2024-02-04T07:42:37;97118.78;;;5.62;100.00
42001;BME280;27689;48.390;10.856;2024-02-04T07:45:21;97113.75;;;5.73;100.00
42001;BME280;27689;48.390;10.856;2024-02-04T07:48:05;97121.81;;;5.83;100.00
42001;BME280;27689;48.390;10.856;2024-02-04T07:50:49;97113.84;;;5.72;100.00
42001;BME280;27689;48.390;10.856;2024-02-04T07:53:33;97114.50;;;5.75;100.00
42001;BME280;27689;48.390;10.856;2024-02-04T07:56:17;97115.53;;;5.87;100.00
42001;BME280;27689;48.390;10.856;2024-02-04T07:59:01;97108.06;;;5.81;100.00
42001;BME280;27689;48.390;10.856;2024-02-04T08:01:45;97113.00;;;5.85;100.00
42001;BME280;27689;48.390;10.856;2024-02-04T08:04:28;97104.97;;;5.90;100.00
42001;BME280;27689;48.390;10.856;2024-02-04T08:07:12;97115.91;;;5.95;100.00
42001;BME280;27689;48.390;10.856;2024-02-04T08:09:57;97115.38;;;6.04;100.00
42001;BME280;27689;48.390;10.856;2024-02-04T08:12:41;97107.16;;;6.10;100.00
42001;BME280;27689;48.390;10.856;2024-02-04T08:15:25;97113.19;;;6.11;100.00
42001;BME280;27689;48.390;10.856;2024-02-04T08:18:10;97109.84;;;6.09;100.00
42001;BME280;27689;48.390;10.856;2024-02-04T08:20:53;97097.22;;;6.17;100.00
42001;BME280;27689;48.390;10.856;2024-02-04T08:23:38;97099.91;;;6.15;100.00
42001;BME280;27689;48.390;10.856;2024-02-04T08:26:23;97106.50;;;6.21;100.00
42001;BME280;27689;48.390;10.856;2024-02-04T08:29:07;97093.97;;;6.13;100.00
42001;BME280;27689;48.390;10.856;2024-02-04T08:31:52;97093.03;;;6.14;100.00
42001;BME280;27689;48.390;10.856;2024-02-04T08:34:36;97099.25;;;6.26;100.00
42001;BME280;27689;48.390;10.856;2024-02-04T08:37:20;97086.72;;;6.18;100.00
42001;BME280;27689;48.390;10.856;2024-02-04T08:40:05;97084.47;;;6.26;100.00
42001;BME280;27689;48.390;10.856;2024-02-04T08:42:49;97076.63;;;6.41;100.00
42001;BME280;27689;48.390;10.856;2024-02-04T08:45:33;97076.44;;;6.44;100.00
42001;BME280;27689;48.390;10.856;2024-02-04T08:48:17;97077.06;;;6.47;100.00
42001;BME280;27689;48.390;10.856;2024-02-04T08:51:01;97084.78;;;6.49;100.00
42001;BME280;27689;48.390;10.856;2024-02-04T08:53:45;97087.50;;;6.47;100.00
42001;BME280;27689;48.390;10.856;2024-02-04T08:56:29;97109.06;;;6.49;100.00
42001;BME280;27689;48.390;10.856;2024-02-04T08:59:13;97095.44;;;6.58;100.00
42001;BME280;27689;48.390;10.856;2024-02-04T09:01:57;97095.28;;;6.47;100.00
42001;BME280;27689;48.390;10.856;2024-02-04T09:04:41;97101.91;;;6.53;100.00
42001;BME280;27689;48.390;10.856;2024-02-04T09:07:25;97098.44;;;6.52;100.00
42001;BME280;27689;48.390;10.856;2024-02-04T09:10:09;97093.56;;;6.60;100.00
42001;BME280;27689;48.390;10.856;2024-02-04T09:12:53;97083.72;;;6.65;100.00
42001;BME280;27689;48.390;10.856;2024-02-04T09:15:37;97093.44;;;6.76;100.00
42001;BME280;27689;48.390;10.856;2024-02-04T09:18:20;97078.72;;;6.75;100.00
42001;BME280;27689;48.390;10.856;2024-02-04T09:21:04;97075.94;;;6.78;100.00
42001;BME280;27689;48.390;10.856;2024-02-04T09:23:48;97073.53;;;6.75;100.00
42001;BME280;27689;48.390;10.856;2024-02-04T09:26:32;97061.78;;;6.82;100.00
42001;BME280;27689;48.390;10.856;2024-02-04T09:29:16;97064.22;;;6.71;100.00
42001;BME280;27689;48.390;10.856;2024-02-04T09:32:00;97070.00;;;6.76;100.00
42001;BME280;27689;48.390;10.856;2024-02-04T09:34:44;97065.09;;;6.84;100.00
42001;BME280;27689;48.390;10.856;2024-02-04T09:37:28;97075.63;;;6.83;100.00
42001;BME280;27689;48.390;10.856;2024-02-04T09:40:12;97081.66;;;6.83;100.00
42001;BME280;27689;48.390;10.856;2024-02-04T09:42:56;97081.25;;;6.77;100.00
42001;BME280;27689;48.390;10.856;2024-02-04T09:45:41;97083.97;;;6.88;100.00
42001;BME280;27689;48.390;10.856;2024-02-04T09:48:25;97082.00;;;6.91;100.00
42001;BME280;27689;48.390;10.856;2024-02-04T09:51:09;97081.41;;;7.00;100.00
42001;BME280;27689;48.390;10.856;2024-02-04T09:53:53;97103.53;;;7.07;100.00
42001;BME280;27689;48.390;10.856;2024-02-04T09:56:37;97102.25;;;7.13;100.00
42001;BME280;27689;48.390;10.856;2024-02-04T09:59:21;97103.72;;;7.17;100.00
42001;BME280;27689;48.390;10.856;2024-02-04T10:02:05;97101.88;;;7.19;100.00
42001;BME280;27689;48.390;10.856;2024-02-04T10:04:50;97110.63;;;7.18;100.00
42001;BME280;27689;48.390;10.856;2024-02-04T10:07:34;97117.94;;;7.26;100.00
42001;BME280;27689;48.390;10.856;2024-02-04T10:10:18;97118.97;;;7.23;100.00
42001;BME280;27689;48.390;10.856;2024-02-04T10:13:06;97125.75;;;7.26;100.00
42001;BME280;27689;48.390;10.856;2024-02-04T10:15:50;97126.47;;;7.28;100.00
42001;BME280;27689;48.390;10.856;2024-02-04T10:18:35;97111.47;;;7.19;100.00
42001;BME280;27689;48.390;10.856;2024-02-04T10:21:19;97097.88;;;7.14;100.00
42001;BME280;27689;48.390;10.856;2024-02-04T10:24:05;97090.81;;;7.16;100.00
42001;BME280;27689;48.390;10.856;2024-02-04T10:26:49;97099.47;;;7.16;100.00
42001;BME280;27689;48.390;10.856;2024-02-04T10:29:33;97099.69;;;7.26;100.00
42001;BME280;27689;48.390;10.856;2024-02-04T10:32:21;97091.75;;;7.27;100.00
42001;BME280;27689;48.390;10.856;2024-02-04T10:35:05;97083.31;;;7.24;100.00
42001;BME280;27689;48.390;10.856;2024-02-04T10:37:49;97088.63;;;7.22;100.00
42001;BME280;27689;48.390;10.856;2024-02-04T10:40:34;97092.72;;;7.39;100.00
42001;BME280;27689;48.390;10.856;2024-02-04T10:43:18;97091.25;;;7.48;100.00
42001;BME280;27689;48.390;10.856;2024-02-04T10:48:55;97081.47;;;7.51;100.00
42001;BME280;27689;48.390;10.856;2024-02-04T10:51:39;97074.03;;;7.58;100.00
42001;BME280;27689;48.390;10.856;2024-02-04T10:54:24;97069.88;;;7.68;100.00
42001;BME280;27689;48.390;10.856;2024-02-04T10:57:14;97064.22;;;7.74;100.00
42001;BME280;27689;48.390;10.856;2024-02-04T11:00:02;97057.00;;;7.90;100.00
42001;BME280;27689;48.390;10.856;2024-02-04T11:02:48;97050.56;;;7.83;100.00
42001;BME280;27689;48.390;10.856;2024-02-04T11:05:33;97032.16;;;7.97;100.00
42001;BME280;27689;48.390;10.856;2024-02-04T11:08:19;97026.59;;;8.02;100.00
42001;BME280;27689;48.390;10.856;2024-02-04T11:11:03;97024.41;;;8.08;100.00
42001;BME280;27689;48.390;10.856;2024-02-04T11:13:47;97021.13;;;8.18;100.00
42001;BME280;27689;48.390;10.856;2024-02-04T11:19:32;97017.09;;;8.13;100.00
42001;BME280;27689;48.390;10.856;2024-02-04T11:25:31;97019.34;;;8.31;100.00
42001;BME280;27689;48.390;10.856;2024-02-04T11:28:21;97009.81;;;8.42;100.00
42001;BME280;27689;48.390;10.856;2024-02-04T11:31:13;97012.56;;;8.52;99.31
42001;BME280;27689;48.390;10.856;2024-02-04T11:33:57;97010.41;;;8.46;99.57
42001;BME280;27689;48.390;10.856;2024-02-04T11:36:41;97008.25;;;8.40;100.00
42001;BME280;27689;48.390;10.856;2024-02-04T11:39:25;97009.69;;;8.44;100.00
42001;BME280;27689;48.390;10.856;2024-02-04T11:42:14;97002.81;;;8.43;100.00
42001;BME280;27689;48.390;10.856;2024-02-04T11:45:11;96991.31;;;8.45;99.82
42001;BME280;27689;48.390;10.856;2024-02-04T11:48:01;96995.41;;;8.37;99.78
42001;BME280;27689;48.390;10.856;2024-02-04T11:50:52;96988.13;;;8.53;99.90
42001;BME280;27689;48.390;10.856;2024-02-04T11:53:36;96979.25;;;8.67;100.00
42001;BME280;27689;48.390;10.856;2024-02-04T11:56:20;96986.19;;;8.79;99.16
42001;BME280;27689;48.390;10.856;2024-02-04T11:59:06;96982.06;;;8.88;97.64
42001;BME280;27689;48.390;10.856;2024-02-04T12:01:57;96974.34;;;8.86;97.70
42001;BME280;27689;48.390;10.856;2024-02-04T12:04:42;96990.84;;;8.75;97.61
42001;BME280;27689;48.390;10.856;2024-02-04T12:07:26;97004.69;;;8.76;97.40
42001;BME280;27689;48.390;10.856;2024-02-04T12:10:10;96984.91;;;8.84;97.09
42001;BME280;27689;48.390;10.856;2024-02-04T12:12:54;96973.16;;;8.90;97.72
42001;BME280;27689;48.390;10.856;2024-02-04T12:15:38;96962.22;;;8.85;96.64
42001;BME280;27689;48.390;10.856;2024-02-04T12:18:23;96941.44;;;9.06;97.20
42001;BME280;27689;48.390;10.856;2024-02-04T12:21:07;96941.59;;;9.38;94.96
42001;BME280;27689;48.390;10.856;2024-02-04T12:23:51;96930.53;;;9.57;93.98
42001;BME280;27689;48.390;10.856;2024-02-04T12:26:35;96912.44;;;9.76;93.38
42001;BME280;27689;48.390;10.856;2024-02-04T12:29:19;96932.03;;;9.81;90.82
42001;BME280;27689;48.390;10.856;2024-02-04T12:32:03;96936.00;;;9.76;91.52
42001;BME280;27689;48.390;10.856;2024-02-04T12:34:47;96948.13;;;9.77;91.71
42001;BME280;27689;48.390;10.856;2024-02-04T12:37:32;96946.44;;;9.65;91.61
42001;BME280;27689;48.390;10.856;2024-02-04T12:40:35;96954.88;;;9.79;91.51
42001;BME280;27689;48.390;10.856;2024-02-04T12:43:19;96963.94;;;9.75;91.10
42001;BME280;27689;48.390;10.856;2024-02-04T12:46:03;96945.72;;;9.85;91.11
42001;BME280;27689;48.390;10.856;2024-02-04T12:48:54;96933.31;;;9.98;89.96
42001;BME280;27689;48.390;10.856;2024-02-04T12:51:38;96913.31;;;9.97;89.04
42001;BME280;27689;48.390;10.856;2024-02-04T12:54:22;96910.47;;;10.00;90.42
42001;BME280;27689;48.390;10.856;2024-02-04T12:57:06;96892.25;;;9.99;90.14
42001;BME280;27689;48.390;10.856;2024-02-04T12:59:50;96908.47;;;9.93;90.67
42001;BME280;27689;48.390;10.856;2024-02-04T13:02:34;96897.44;;;10.10;90.41
42001;BME280;27689;48.390;10.856;2024-02-04T13:05:22;96908.25;;;10.28;88.91
42001;BME280;27689;48.390;10.856;2024-02-04T13:08:09;96922.84;;;10.41;88.94
42001;BME280;27689;48.390;10.856;2024-02-04T13:10:54;96916.16;;;10.48;87.71
42001;BME280;27689;48.390;10.856;2024-02-04T13:13:41;96919.59;;;10.49;88.49
42001;BME280;27689;48.390;10.856;2024-02-04T13:16:25;96922.53;;;10.35;86.95
42001;BME280;27689;48.390;10.856;2024-02-04T13:19:09;96917.66;;;10.30;88.93
42001;BME280;27689;48.390;10.856;2024-02-04T13:21:53;96925.88;;;10.25;88.08
42001;BME280;27689;48.390;10.856;2024-02-04T13:24:37;96919.69;;;10.27;88.76
42001;BME280;27689;48.390;10.856;2024-02-04T13:27:21;96909.44;;;10.35;88.13
42001;BME280;27689;48.390;10.856;2024-02-04T13:30:05;96902.53;;;10.34;88.37
42001;BME280;27689;48.390;10.856;2024-02-04T13:32:53;96906.81;;;10.35;88.96
42001;BME280;27689;48.390;10.856;2024-02-04T13:35:37;96901.16;;;10.39;88.54
42001;BME280;27689;48.390;10.856;2024-02-04T13:38:21;96891.00;;;10.25;89.10
42001;BME280;27689;48.390;10.856;2024-02-04T13:41:05;96876.72;;;10.18;88.73
42001;BME280;27689;48.390;10.856;2024-02-04T13:43:51;96889.75;;;10.08;89.86
42001;BME280;27689;48.390;10.856;2024-02-04T13:46:35;96884.28;;;10.00;90.80
42001;BME280;27689;48.390;10.856;2024-02-04T13:49:19;96887.63;;;10.02;90.05
42001;BME280;27689;48.390;10.856;2024-02-04T13:52:02;96891.81;;;9.94;91.06
42001;BME280;27689;48.390;10.856;2024-02-04T13:54:46;96900.88;;;9.89;91.03
42001;BME280;27689;48.390;10.856;2024-02-04T13:57:30;96902.19;;;9.84;92.07
42001;BME280;27689;48.390;10.856;2024-02-04T14:00:14;96905.75;;;9.94;91.22
42001;BME280;27689;48.390;10.856;2024-02-04T14:02:58;96892.03;;;10.02;91.01
42001;BME280;27689;48.390;10.856;2024-02-04T14:05:42;96879.13;;;9.67;92.72
42001;BME280;27689;48.390;10.856;2024-02-04T14:08:26;96882.38;;;9.59;92.96
42001;BME280;27689;48.390;10.856;2024-02-04T14:11:10;96879.25;;;9.65;93.12
42001;BME280;27689;48.390;10.856;2024-02-04T14:13:54;96876.41;;;9.68;93.15
42001;BME280;27689;48.390;10.856;2024-02-04T14:16:38;96886.63;;;9.71;93.68
42001;BME280;27689;48.390;10.856;2024-02-04T14:19:22;96884.72;;;9.73;93.59
42001;BME280;27689;48.390;10.856;2024-02-04T14:22:06;96883.03;;;9.83;92.92
42001;BME280;27689;48.390;10.856;2024-02-04T14:24:50;96871.88;;;9.70;93.61
42001;BME280;27689;48.390;10.856;2024-02-04T14:27:34;96857.50;;;9.76;93.20
42001;BME280;27689;48.390;10.856;2024-02-04T14:30:20;96869.16;;;9.72;94.25
42001;BME280;27689;48.390;10.856;2024-02-04T14:33:04;96867.56;;;9.80;94.08